createdAt,value
2022-10-15T00:03:14.025Z,14.45
2022-10-15T00:08:39.395Z,14.36
2022-10-15T00:13:31.793Z,14.44
2022-10-15T00:18:31.745Z,14.43
2022-10-15T00:23:31.660Z,14.43
2022-10-15T00:28:33.593Z,14.43
2022-10-15T00:33:31.552Z,14.41
2022-10-15T00:38:31.459Z,14.41
2022-10-15T00:43:31.368Z,14.40
2022-10-15T00:48:31.313Z,14.37
2022-10-15T00:53:31.268Z,14.40
2022-10-15T00:58:31.174Z,14.37
2022-10-15T01:03:31.372Z,14.40
2022-10-15T01:08:31.070Z,14.40
2022-10-15T01:13:31.063Z,14.36
2022-10-15T01:18:30.917Z,14.36
2022-10-15T01:23:30.868Z,14.36
2022-10-15T01:28:30.816Z,14.40
2022-10-15T01:33:30.676Z,14.40
2022-10-15T01:38:30.644Z,14.41
2022-10-15T01:43:30.576Z,14.41
2022-10-15T01:48:30.502Z,14.40
2022-10-15T01:53:30.433Z,14.37
2022-10-15T01:58:30.367Z,14.36
2022-10-15T02:03:30.286Z,14.35
2022-10-15T02:08:30.239Z,14.36
2022-10-15T02:13:30.167Z,14.35
2022-10-15T02:18:30.193Z,14.35
2022-10-15T02:23:30.039Z,14.35
2022-10-15T02:28:30.034Z,14.33
2022-10-15T02:33:29.875Z,14.35
2022-10-15T02:38:29.847Z,14.32
2022-10-15T02:43:29.767Z,14.32
2022-10-15T02:48:29.744Z,14.33
2022-10-15T02:53:29.663Z,14.32
2022-10-15T02:58:29.568Z,14.32
2022-10-15T03:03:29.476Z,14.30
2022-10-15T03:08:29.419Z,14.32
2022-10-15T03:13:29.363Z,14.30
2022-10-15T03:18:29.271Z,14.30
2022-10-15T03:23:29.241Z,14.29
2022-10-15T03:28:29.223Z,14.28
2022-10-15T03:33:29.069Z,14.26
2022-10-15T03:38:29.020Z,14.25
2022-10-15T03:43:28.966Z,14.25
2022-10-15T03:48:28.877Z,14.20
2022-10-15T03:53:28.829Z,14.17
2022-10-15T03:58:28.720Z,14.12
2022-10-15T04:03:28.688Z,14.12
2022-10-15T04:08:28.600Z,14.10
2022-10-15T04:13:28.518Z,14.11
2022-10-15T04:18:38.211Z,14.07
2022-10-15T04:23:30.583Z,14.10
2022-10-15T04:28:30.606Z,14.10
2022-10-15T04:33:30.404Z,14.10
2022-10-15T04:38:30.344Z,14.08
2022-10-15T04:43:30.273Z,14.07
2022-10-15T04:48:30.247Z,14.05
2022-10-15T04:53:30.147Z,14.05
2022-10-15T04:58:30.095Z,14.07
2022-10-15T05:03:30.129Z,14.03
2022-10-15T05:08:29.956Z,14.05
2022-10-15T05:13:29.923Z,14.07
2022-10-15T05:18:29.860Z,14.08
2022-10-15T05:23:29.730Z,14.08
2022-10-15T05:28:29.726Z,14.07
2022-10-15T05:33:29.606Z,14.05
2022-10-15T05:38:29.537Z,14.05
2022-10-15T05:43:29.464Z,14.07
2022-10-15T05:48:29.477Z,14.08
2022-10-15T05:53:29.343Z,14.10
2022-10-15T05:58:32.048Z,14.08
2022-10-15T06:03:30.198Z,14.08
2022-10-15T06:08:29.131Z,14.08
2022-10-15T06:13:29.051Z,14.08
2022-10-15T06:18:29.002Z,14.12
2022-10-15T06:23:28.925Z,14.14
2022-10-15T06:28:28.874Z,14.17
2022-10-15T06:33:28.790Z,14.20
2022-10-15T06:38:28.736Z,14.25
2022-10-15T06:43:31.006Z,14.26
2022-10-15T06:48:28.597Z,14.30
2022-10-15T06:53:28.527Z,14.29
2022-10-15T06:58:28.437Z,14.40
2022-10-15T07:03:28.381Z,14.63
2022-10-15T07:08:28.332Z,14.73
2022-10-15T07:13:28.230Z,15.11
2022-10-15T07:18:28.228Z,15.19
2022-10-15T07:23:28.157Z,15.18
2022-10-15T07:28:28.108Z,15.21
2022-10-15T07:33:27.988Z,15.17
2022-10-15T07:38:27.922Z,15.21
2022-10-15T07:43:27.819Z,15.14
2022-10-15T07:48:27.783Z,15.18
2022-10-15T07:53:27.709Z,15.18
2022-10-15T07:58:27.652Z,15.25
2022-10-15T08:03:27.597Z,15.25
2022-10-15T08:08:27.485Z,15.17
2022-10-15T08:13:27.427Z,15.17
2022-10-15T08:18:27.637Z,15.19
2022-10-15T08:23:27.297Z,15.28
2022-10-15T08:28:27.297Z,15.35
2022-10-15T08:33:27.209Z,15.42
2022-10-15T08:38:27.087Z,15.62
2022-10-15T08:43:27.046Z,15.88
2022-10-15T08:48:26.973Z,16.02
2022-10-15T08:53:26.915Z,16.09
2022-10-15T08:58:26.835Z,16.01
2022-10-15T09:03:26.801Z,15.97
2022-10-15T09:08:26.709Z,15.84
2022-10-15T09:13:26.677Z,15.91
2022-10-15T09:18:26.839Z,16.02
2022-10-15T09:23:26.505Z,16.10
2022-10-15T09:28:26.461Z,16.26
2022-10-15T09:33:26.355Z,16.36
2022-10-15T09:38:26.286Z,16.61
2022-10-15T09:43:26.191Z,16.81
2022-10-15T09:48:26.170Z,16.68
2022-10-15T09:53:28.184Z,16.78
2022-10-15T09:58:26.006Z,17.01
2022-10-15T10:03:25.946Z,16.96
2022-10-15T10:08:25.881Z,16.96
2022-10-15T10:13:25.801Z,16.90
2022-10-15T10:18:25.734Z,16.96
2022-10-15T10:23:25.894Z,17.08
2022-10-15T10:28:25.602Z,17.01
2022-10-15T10:33:25.558Z,17.06
2022-10-15T10:38:25.478Z,17.14
2022-10-15T10:43:25.369Z,17.22
2022-10-15T10:48:25.346Z,17.19
2022-10-15T10:53:25.280Z,17.14
2022-10-15T10:58:27.130Z,17.15
2022-10-15T11:03:25.220Z,17.23
2022-10-15T11:08:25.099Z,17.29
2022-10-15T11:13:27.583Z,17.30
2022-10-15T11:18:25.916Z,17.38
2022-10-15T11:23:27.243Z,17.33
2022-10-15T11:28:24.888Z,17.41
2022-10-15T11:33:24.744Z,17.51
2022-10-15T11:38:24.681Z,17.54
2022-10-15T11:43:24.608Z,17.68
2022-10-15T11:48:24.537Z,17.90
2022-10-15T11:53:24.460Z,18.07
2022-10-15T11:58:24.355Z,18.19
2022-10-15T12:03:24.316Z,18.28
2022-10-15T12:08:24.255Z,18.41
2022-10-15T12:13:24.175Z,18.35
2022-10-15T12:18:24.128Z,18.37
2022-10-15T12:23:24.052Z,18.41
2022-10-15T12:28:24.089Z,18.65
2022-10-15T12:33:23.916Z,18.77
2022-10-15T12:38:23.854Z,18.92
2022-10-15T12:43:23.790Z,19.08
2022-10-15T12:48:23.724Z,19.15
2022-10-15T12:53:23.716Z,19.12
2022-10-15T12:58:23.575Z,18.93
2022-10-15T13:03:23.597Z,18.88
2022-10-15T13:08:23.549Z,18.84
2022-10-15T13:13:23.387Z,18.84
2022-10-15T13:18:23.293Z,18.83
2022-10-15T13:23:31.222Z,18.92
2022-10-15T13:28:24.509Z,19.45
2022-10-15T13:33:23.109Z,19.63
2022-10-15T13:38:23.200Z,19.44
2022-10-15T13:43:22.972Z,19.36
2022-10-15T13:48:22.912Z,19.14
2022-10-15T13:53:22.885Z,18.92
2022-10-15T13:58:26.486Z,18.70
2022-10-15T14:03:22.691Z,18.55
2022-10-15T14:08:22.620Z,18.78
2022-10-15T14:13:22.670Z,18.84
2022-10-15T14:18:22.491Z,18.81
2022-10-15T14:23:22.432Z,19.00
2022-10-15T14:28:22.439Z,18.98
2022-10-15T14:33:22.308Z,18.98
2022-10-15T14:38:22.236Z,18.90
2022-10-15T14:43:22.317Z,18.81
2022-10-15T14:48:22.230Z,18.71
2022-10-15T14:53:22.026Z,18.55
2022-10-15T14:58:22.001Z,18.44
2022-10-15T15:03:22.009Z,18.40
2022-10-15T15:08:21.859Z,18.47
2022-10-15T15:13:21.748Z,18.40
2022-10-15T15:18:21.691Z,18.34
2022-10-15T15:23:21.730Z,18.31
2022-10-15T15:28:21.648Z,18.26
2022-10-15T15:33:21.616Z,18.22
2022-10-15T15:38:21.563Z,18.13
2022-10-15T15:43:21.366Z,18.11
2022-10-15T15:48:21.273Z,18.13
2022-10-15T15:53:21.226Z,18.13
2022-10-15T15:58:21.186Z,18.05
2022-10-15T16:03:21.069Z,17.95
2022-10-15T16:08:21.077Z,17.80
2022-10-15T16:13:21.051Z,17.71
2022-10-15T16:18:20.907Z,17.60
2022-10-15T16:23:20.802Z,17.49
2022-10-15T16:28:20.763Z,17.41
2022-10-15T16:33:20.682Z,17.30
2022-10-15T16:38:20.619Z,17.22
2022-10-15T16:43:20.560Z,17.14
2022-10-15T16:48:20.481Z,17.06
2022-10-15T16:53:20.409Z,16.99
2022-10-15T16:58:20.363Z,16.89
2022-10-15T17:03:20.250Z,16.81
2022-10-15T17:08:22.346Z,16.74
2022-10-15T17:13:20.165Z,16.69
2022-10-15T17:18:20.052Z,16.64
2022-10-15T17:23:20.021Z,16.61
2022-10-15T17:33:19.853Z,16.54
2022-10-15T17:38:21.896Z,16.49
2022-10-15T17:43:19.743Z,16.46
2022-10-15T17:48:19.646Z,16.42
2022-10-15T17:53:19.591Z,16.38
2022-10-15T17:58:19.555Z,16.33
2022-10-15T18:03:19.441Z,16.32
2022-10-15T18:08:19.396Z,16.32
2022-10-15T18:13:19.332Z,16.32
2022-10-15T18:18:19.235Z,16.31
2022-10-15T18:23:19.229Z,16.38
2022-10-15T18:28:19.195Z,16.42
2022-10-15T18:33:19.039Z,16.43
2022-10-15T18:38:19.062Z,16.46
2022-10-15T18:43:19.581Z,16.46
2022-10-15T18:48:18.846Z,16.42
2022-10-15T18:53:18.791Z,16.42
2022-10-15T18:58:19.157Z,16.36
2022-10-15T19:03:18.627Z,16.26
2022-10-15T19:08:20.834Z,16.23
2022-10-15T19:13:18.522Z,16.20
2022-10-15T19:18:18.437Z,16.16
2022-10-15T19:23:18.700Z,16.13
2022-10-15T19:28:18.370Z,16.10
2022-10-15T19:33:18.251Z,16.10
2022-10-15T19:38:18.205Z,16.12
2022-10-15T19:43:18.094Z,16.12
2022-10-15T19:48:18.081Z,16.12
2022-10-15T19:53:17.955Z,16.13
2022-10-15T19:58:17.941Z,16.15
2022-10-15T20:03:17.842Z,16.13
2022-10-15T20:08:17.783Z,16.13
2022-10-15T20:13:17.758Z,16.13
2022-10-15T20:18:17.653Z,16.15
2022-10-15T20:23:17.579Z,16.13
2022-10-15T20:28:17.648Z,16.12
2022-10-15T20:33:17.561Z,16.10
2022-10-15T20:38:17.416Z,16.05
2022-10-15T20:43:17.287Z,16.02
2022-10-15T20:48:17.244Z,15.98
2022-10-15T20:53:17.179Z,15.95
2022-10-15T20:58:17.072Z,15.88
2022-10-15T21:03:17.399Z,15.83
2022-10-15T21:08:16.981Z,15.80
2022-10-15T21:13:16.919Z,15.77
2022-10-15T21:18:16.835Z,15.76
2022-10-15T21:23:16.759Z,15.73
2022-10-15T21:28:16.670Z,15.68
2022-10-15T21:33:16.606Z,15.67
2022-10-15T21:38:16.562Z,15.61
2022-10-15T21:43:16.573Z,15.64
2022-10-15T21:48:16.404Z,15.62
2022-10-15T21:53:16.351Z,15.57
2022-10-15T21:58:16.289Z,15.52
2022-10-15T22:03:16.208Z,15.46
2022-10-15T22:08:16.185Z,15.42
2022-10-15T22:13:16.058Z,15.43
2022-10-15T22:18:16.002Z,15.40
2022-10-15T22:23:15.949Z,15.36
2022-10-15T22:28:15.851Z,15.31
2022-10-15T22:33:15.823Z,15.27
2022-10-15T22:38:15.735Z,15.22
2022-10-15T22:43:15.655Z,15.18
2022-10-15T22:48:15.590Z,15.10
2022-10-15T22:53:15.537Z,15.03
2022-10-15T22:58:15.447Z,14.92
2022-10-15T23:03:15.424Z,14.85
2022-10-15T23:08:15.355Z,14.79
2022-10-15T23:13:15.241Z,14.72
2022-10-15T23:18:15.220Z,14.73
2022-10-15T23:23:15.124Z,14.72
2022-10-15T23:28:15.061Z,14.68
2022-10-15T23:33:14.986Z,14.65
2022-10-15T23:38:14.944Z,14.63
2022-10-15T23:43:14.858Z,14.62
2022-10-15T23:48:14.808Z,14.63
2022-10-15T23:53:14.720Z,14.59
2022-10-15T23:58:14.662Z,14.54
